Allen, KS

3:14 AM CST on December 21, 2014 (GMT -0600)
Timmerman School Area | Change Station
CLOSE
Current Station
Personal Weather Station
Location: Emporia, KS
Elevation: 1214 ft
Nearby Weather Stations

Elev 1214 ft 38.43 °N, 96.22 °W | Updated 2 minutes ago

Overcast
Overcast
37.9 °F
Feels Like 33 °F
N
6.0
Wind Variable Wind from SSE
Gusts 7.4 mph

Today
High -- | Low -- °F
--% Chance of Precip.
Yesterday
High -- | Low -- °F
Precip. -- in
7:39 AM 5:07 PM
Waning Crescent, 1% visible
Pressure 30.09 in
Visibility 8.0 miles
Clouds Overcast 1300 ft
Windchill 33 °F
Dew Point 37 °F
Humidity 95%
Rainfall 0.00 in
Snow Depth Not available.
UV 0 out of 12
Pollen .10 out of 12
Air Quality Not available.
Flu Activity Not available.
METAR KEMP 210853Z AUTO 17007KT 8SM OVC013 03/02 A3007 RMK AO2 SLP190 T00280017 55004

More Conditions Fewer Conditions

Pressure 30.09 in
Visibility 8.0 miles
Clouds Overcast 1300 ft
Windchill 33 °F
Dew Point 37 °F
Humidity 95%
Rainfall 0.00 in
Snow Depth Not available.
UV 0 out of 12
Pollen .10 out of 12
Air Quality Not available.
Flu Activity Not available.
METAR KEMP 210853Z AUTO 17007KT 8SM OVC013 03/02 A3007 RMK AO2 SLP190 T00280017 55004

More Conditions Fewer Conditions

10-Day Weather Forecast

Almanac

Astronomy

Dec. 21, 2014 Rise Set
Actual Time
Civil Twilight
Nautical Twilight
Astronomical Twilight
Moon
Length of Visible Light
Length of Day
Tomorrow will be .
, % of the Moon is Illuminated

Today's Extremes

State Highs State Lows

Community

WunderPhotos

Upload Photos

1,779,364 photos uploaded!

WunderBlogs® & News

Nearby

Air Quality

  Air Quality AQ Index Pollutant
Not available.

Snow Depth

Station Depth Elevation

Earthquake Activity

City Distance Mag. Time & Date
Minimum magnitude displayed is 2.5.

Coastal Water Temperatures

Place Temperature

Nearby Weather Stations